createdAt,value
2023-01-08T00:00:25.002Z,11.55
2023-01-08T00:01:24.909Z,11.52
2023-01-08T00:02:24.896Z,11.50
2023-01-08T00:03:25.139Z,11.51
2023-01-08T00:04:24.847Z,11.52
2023-01-08T00:05:24.860Z,11.57
2023-01-08T00:06:24.836Z,11.44
2023-01-08T00:07:24.831Z,11.55
2023-01-08T00:08:24.824Z,11.52
2023-01-08T00:09:25.831Z,11.54
2023-01-08T00:10:24.800Z,11.51
2023-01-08T00:11:24.781Z,11.32
2023-01-08T00:12:24.757Z,11.32
2023-01-08T00:13:24.773Z,11.44
2023-01-08T00:14:24.763Z,11.47
2023-01-08T00:15:24.830Z,11.40
2023-01-08T00:16:24.768Z,11.45
2023-01-08T00:17:24.708Z,11.35
2023-01-08T00:18:24.776Z,11.43
2023-01-08T00:19:24.709Z,11.40
2023-01-08T00:20:24.670Z,11.47
2023-01-08T00:21:24.674Z,11.43
2023-01-08T00:22:24.663Z,11.30
2023-01-08T00:23:24.659Z,11.25
2023-01-08T00:24:24.695Z,11.27
2023-01-08T00:25:24.634Z,11.32
2023-01-08T00:26:24.642Z,11.32
2023-01-08T00:27:24.598Z,11.44
2023-01-08T00:28:24.608Z,11.45
2023-01-08T00:29:24.591Z,11.48
2023-01-08T00:30:24.643Z,11.44
2023-01-08T00:31:24.738Z,11.44
2023-01-08T00:32:24.545Z,11.43
2023-01-08T00:33:24.540Z,11.48
2023-01-08T00:34:24.523Z,11.52
2023-01-08T00:35:24.530Z,11.51
2023-01-08T00:36:24.507Z,11.51
2023-01-08T00:37:24.520Z,11.54
2023-01-08T00:38:25.483Z,11.60
2023-01-08T00:39:24.513Z,11.65
2023-01-08T00:40:24.468Z,11.65
2023-01-08T00:41:24.441Z,11.57
2023-01-08T00:42:24.471Z,11.62
2023-01-08T00:43:24.438Z,11.69
2023-01-08T00:44:25.410Z,11.69
2023-01-08T00:45:24.407Z,11.69
2023-01-08T00:46:25.441Z,11.63
2023-01-08T00:47:24.533Z,11.57
2023-01-08T00:48:24.377Z,11.73
2023-01-08T00:49:25.367Z,11.69
2023-01-08T00:50:24.361Z,11.66
2023-01-08T00:51:24.359Z,11.70
2023-01-08T00:52:24.326Z,11.78
2023-01-08T00:53:25.340Z,11.84
2023-01-08T00:54:24.318Z,11.70
2023-01-08T00:55:24.317Z,11.68
2023-01-08T00:56:24.316Z,11.68
2023-01-08T00:57:25.266Z,11.78
2023-01-08T00:58:24.266Z,11.62
2023-01-08T00:59:24.280Z,11.65
2023-01-08T01:00:24.264Z,11.75
2023-01-08T01:01:24.374Z,11.81
2023-01-08T01:02:24.264Z,11.77
2023-01-08T01:03:25.246Z,11.80
2023-01-08T01:04:24.354Z,11.72
2023-01-08T01:05:25.206Z,11.65
2023-01-08T01:06:24.190Z,11.69
2023-01-08T01:07:24.200Z,11.77
2023-01-08T01:08:24.144Z,11.83
2023-01-08T01:09:24.149Z,11.86
2023-01-08T01:10:24.163Z,11.87
2023-01-08T01:11:24.138Z,11.86
2023-01-08T01:12:24.144Z,11.84
2023-01-08T01:13:25.115Z,11.91
2023-01-08T01:14:24.095Z,11.94
2023-01-08T01:15:24.075Z,11.95
2023-01-08T01:16:24.152Z,11.95
2023-01-08T01:17:24.063Z,11.91
2023-01-08T01:18:24.053Z,11.90
2023-01-08T01:19:24.142Z,11.84
2023-01-08T01:20:24.041Z,11.87
2023-01-08T01:21:24.021Z,11.87
2023-01-08T01:22:24.043Z,11.87
2023-01-08T01:23:24.004Z,11.94
2023-01-08T01:24:23.994Z,11.95
2023-01-08T01:25:24.010Z,11.99
2023-01-08T01:26:23.959Z,12.02
2023-01-08T01:27:23.942Z,11.97
2023-01-08T01:28:24.948Z,11.97
2023-01-08T01:29:23.938Z,11.95
2023-01-08T01:30:23.928Z,11.97
2023-01-08T01:31:23.909Z,12.10
2023-01-08T01:32:23.898Z,12.03
2023-01-08T01:33:23.903Z,11.97
2023-01-08T01:34:23.872Z,12.02
2023-01-08T01:35:23.990Z,12.00
2023-01-08T01:36:23.883Z,11.91
2023-01-08T01:37:23.829Z,12.06
2023-01-08T01:38:23.821Z,11.97
2023-01-08T01:39:23.850Z,12.00
2023-01-08T01:40:23.826Z,11.99
2023-01-08T01:41:23.800Z,11.84
2023-01-08T01:42:23.803Z,11.88
2023-01-08T01:43:23.777Z,11.87
2023-01-08T01:44:24.751Z,11.84
2023-01-08T01:45:23.753Z,11.87
2023-01-08T01:46:23.784Z,11.88
2023-01-08T01:47:23.752Z,11.81
2023-01-08T01:48:24.718Z,11.86
2023-01-08T01:49:23.700Z,11.84
2023-01-08T01:50:23.707Z,11.78
2023-01-08T01:51:23.786Z,11.75
2023-01-08T01:52:23.701Z,11.87
2023-01-08T01:53:23.680Z,11.88
2023-01-08T01:54:23.710Z,11.86
2023-01-08T01:55:23.644Z,11.86
2023-01-08T01:56:23.690Z,11.90
2023-01-08T01:57:23.617Z,11.70
2023-01-08T01:58:23.615Z,11.73
2023-01-08T01:59:23.629Z,11.75
2023-01-08T02:00:23.575Z,11.73
2023-01-08T02:01:23.715Z,11.73
2023-01-08T02:02:23.710Z,11.75
2023-01-08T02:03:23.596Z,11.70
2023-01-08T02:04:23.640Z,11.83
2023-01-08T02:05:23.557Z,11.81
2023-01-08T02:06:24.502Z,11.72
2023-01-08T02:07:23.663Z,11.72
2023-01-08T02:08:23.496Z,11.65
2023-01-08T02:09:23.508Z,11.69
2023-01-08T02:10:23.489Z,11.72
2023-01-08T02:11:23.458Z,11.72
2023-01-08T02:12:23.447Z,11.75
2023-01-08T02:13:23.425Z,11.66
2023-01-08T02:14:23.440Z,11.73
2023-01-08T02:15:23.455Z,11.69
2023-01-08T02:16:23.409Z,11.69
2023-01-08T02:17:24.394Z,11.70
2023-01-08T02:18:23.386Z,11.66
2023-01-08T02:19:23.385Z,11.57
2023-01-08T02:20:23.355Z,11.59
2023-01-08T02:21:23.358Z,11.65
2023-01-08T02:22:24.339Z,11.62
2023-01-08T02:23:23.447Z,11.60
2023-01-08T02:24:23.336Z,11.57
2023-01-08T02:25:23.321Z,11.50
2023-01-08T02:26:23.303Z,11.57
2023-01-08T02:27:23.285Z,11.52
2023-01-08T02:28:23.295Z,11.52
2023-01-08T02:29:23.264Z,11.48
2023-01-08T02:30:23.250Z,11.47
2023-01-08T02:31:23.236Z,11.41
2023-01-08T02:32:23.257Z,11.41
2023-01-08T02:33:23.226Z,11.35
2023-01-08T02:34:24.193Z,11.41
2023-01-08T02:35:23.227Z,11.40
2023-01-08T02:36:23.187Z,11.44
2023-01-08T02:37:23.201Z,11.40
2023-01-08T02:38:23.149Z,11.37
2023-01-08T02:39:24.290Z,11.35
2023-01-08T02:40:23.167Z,11.27
2023-01-08T02:41:23.119Z,11.29
2023-01-08T02:42:23.157Z,11.30
2023-01-08T02:43:23.107Z,11.30
2023-01-08T02:44:23.106Z,11.25
2023-01-08T02:45:23.112Z,11.26
2023-01-08T02:46:23.082Z,11.27
2023-01-08T02:47:23.071Z,11.26
2023-01-08T02:48:23.070Z,11.26
2023-01-08T02:49:23.064Z,11.29
2023-01-08T02:50:23.034Z,11.19
2023-01-08T02:51:23.032Z,11.19
2023-01-08T02:52:23.029Z,11.18
2023-01-08T02:53:23.005Z,11.15
2023-01-08T02:54:22.994Z,11.18
2023-01-08T02:55:22.984Z,11.25
2023-01-08T02:56:22.962Z,11.26
2023-01-08T02:57:22.974Z,11.25
2023-01-08T02:58:22.946Z,11.27
2023-01-08T02:59:22.942Z,11.32
2023-01-08T03:00:22.923Z,11.29
2023-01-08T03:01:23.139Z,11.29
2023-01-08T03:02:24.017Z,11.18
2023-01-08T03:03:23.915Z,11.18
2023-01-08T03:04:23.932Z,11.23
2023-01-08T03:05:22.851Z,11.26
2023-01-08T03:06:23.884Z,11.26
2023-01-08T03:07:22.882Z,11.41
2023-01-08T03:08:23.712Z,11.36
2023-01-08T03:09:22.860Z,11.41
2023-01-08T03:10:22.825Z,11.51
2023-01-08T03:11:22.948Z,11.60
2023-01-08T03:12:22.801Z,11.55
2023-01-08T03:13:22.775Z,11.57
2023-01-08T03:14:22.788Z,11.60
2023-01-08T03:15:23.762Z,11.52
2023-01-08T03:16:22.759Z,11.55
2023-01-08T03:17:23.718Z,11.63
2023-01-08T03:18:23.727Z,11.59
2023-01-08T03:19:22.731Z,11.70
2023-01-08T03:20:22.723Z,11.59
2023-01-08T03:21:22.680Z,11.69
2023-01-08T03:22:22.669Z,11.60
2023-01-08T03:23:22.697Z,11.60
2023-01-08T03:24:22.658Z,11.57
2023-01-08T03:25:22.651Z,11.63
2023-01-08T03:26:22.681Z,11.62
2023-01-08T03:27:22.859Z,11.59
2023-01-08T03:28:22.603Z,11.62
2023-01-08T03:29:22.634Z,11.57
2023-01-08T03:30:22.578Z,11.66
2023-01-08T03:31:23.591Z,11.66
2023-01-08T03:32:22.595Z,11.66
2023-01-08T03:33:22.546Z,11.66
2023-01-08T03:34:22.541Z,11.65
2023-01-08T03:35:22.537Z,11.70
2023-01-08T03:36:22.560Z,11.72
2023-01-08T03:37:22.531Z,11.72
2023-01-08T03:38:22.507Z,11.69
2023-01-08T03:39:22.501Z,11.62
2023-01-08T03:40:22.495Z,11.62
2023-01-08T03:41:22.486Z,11.62
2023-01-08T03:42:22.453Z,11.57
2023-01-08T03:43:22.599Z,11.59
2023-01-08T03:44:22.469Z,11.54
2023-01-08T03:45:23.441Z,11.60
2023-01-08T03:46:22.471Z,11.73
2023-01-08T03:47:22.427Z,11.73
2023-01-08T03:48:22.729Z,11.62
2023-01-08T03:49:22.405Z,11.69
2023-01-08T03:50:22.370Z,11.77
2023-01-08T03:51:23.393Z,11.68
2023-01-08T03:52:22.352Z,11.77
2023-01-08T03:53:22.332Z,11.63
2023-01-08T03:54:22.339Z,11.62
2023-01-08T03:55:22.321Z,11.63
2023-01-08T03:56:23.309Z,11.63
2023-01-08T03:57:22.305Z,11.66
2023-01-08T03:58:30.067Z,11.75
2023-01-08T03:59:22.304Z,11.66
2023-01-08T04:00:22.263Z,11.66
2023-01-08T04:01:22.385Z,11.63
2023-01-08T04:02:22.514Z,11.65
2023-01-08T04:03:22.217Z,11.72
2023-01-08T04:04:22.278Z,11.66
2023-01-08T04:05:22.243Z,11.69
2023-01-08T04:06:22.201Z,11.66
2023-01-08T04:07:22.190Z,11.65
2023-01-08T04:08:22.173Z,11.68
2023-01-08T04:09:22.165Z,11.70
2023-01-08T04:10:22.166Z,11.72
2023-01-08T04:11:22.155Z,11.73
2023-01-08T04:12:22.144Z,11.69
2023-01-08T04:13:22.135Z,11.72
2023-01-08T04:14:22.221Z,11.80
2023-01-08T04:15:22.105Z,11.78
2023-01-08T04:16:22.108Z,11.75
2023-01-08T04:17:23.083Z,11.78
2023-01-08T04:18:23.061Z,11.73
2023-01-08T04:19:22.063Z,11.70
2023-01-08T04:20:23.047Z,11.68
2023-01-08T04:21:22.029Z,11.75
2023-01-08T04:22:22.042Z,11.68
2023-01-08T04:23:22.010Z,11.77
2023-01-08T04:24:22.006Z,11.78
2023-01-08T04:25:21.985Z,11.84
2023-01-08T04:26:22.991Z,11.83
2023-01-08T04:27:21.993Z,11.83
2023-01-08T04:28:21.944Z,11.91
2023-01-08T04:29:21.947Z,11.94
2023-01-08T04:30:22.041Z,11.88
2023-01-08T04:31:22.035Z,11.72
2023-01-08T04:32:21.917Z,11.69
2023-01-08T04:33:21.889Z,11.60
2023-01-08T04:34:22.899Z,11.60
2023-01-08T04:35:21.883Z,11.68
2023-01-08T04:36:22.867Z,11.54
2023-01-08T04:37:21.860Z,11.70
2023-01-08T04:38:21.863Z,11.70
2023-01-08T04:39:21.837Z,11.68
2023-01-08T04:40:21.808Z,11.68
2023-01-08T04:41:21.839Z,11.77
2023-01-08T04:42:21.809Z,11.81
2023-01-08T04:43:21.790Z,11.72
2023-01-08T04:44:21.799Z,11.72
2023-01-08T04:45:21.764Z,11.68
2023-01-08T04:46:21.992Z,11.66
2023-01-08T04:47:21.758Z,11.77
2023-01-08T04:48:21.722Z,11.77
2023-01-08T04:49:21.729Z,11.65
2023-01-08T04:50:21.727Z,11.75
2023-01-08T04:51:21.734Z,11.73
2023-01-08T04:52:22.697Z,11.69
2023-01-08T04:53:21.677Z,11.62
2023-01-08T04:54:21.660Z,11.63
2023-01-08T04:55:21.661Z,11.65
2023-01-08T04:56:22.664Z,11.60
2023-01-08T04:57:21.623Z,11.59
2023-01-08T04:58:21.626Z,11.60
2023-01-08T04:59:21.643Z,11.63
2023-01-08T05:00:21.707Z,11.73
2023-01-08T05:01:21.770Z,11.66
2023-01-08T05:02:22.014Z,11.62
2023-01-08T05:03:21.668Z,11.68
2023-01-08T05:04:21.554Z,11.69
2023-01-08T05:05:22.578Z,11.66
2023-01-08T05:06:21.533Z,11.68
2023-01-08T05:07:21.513Z,11.57
2023-01-08T05:08:22.501Z,11.60
2023-01-08T05:09:21.503Z,11.59
2023-01-08T05:10:21.508Z,11.68
2023-01-08T05:11:21.520Z,11.63
2023-01-08T05:12:21.461Z,11.68
2023-01-08T05:13:22.450Z,11.69
2023-01-08T05:14:21.457Z,11.75
2023-01-08T05:15:21.437Z,11.68
2023-01-08T05:16:21.530Z,11.65
2023-01-08T05:17:21.437Z,11.68
2023-01-08T05:18:21.515Z,11.66
2023-01-08T05:19:21.397Z,11.68
2023-01-08T05:20:21.381Z,11.68
2023-01-08T05:21:21.376Z,11.72
2023-01-08T05:22:22.388Z,11.77
2023-01-08T05:23:21.350Z,11.80
2023-01-08T05:24:22.380Z,11.77
2023-01-08T05:25:21.319Z,11.75
2023-01-08T05:26:21.345Z,11.73
2023-01-08T05:27:21.295Z,11.75
2023-01-08T05:28:21.302Z,11.70
2023-01-08T05:29:21.304Z,11.69
2023-01-08T05:30:22.281Z,11.65
2023-01-08T05:31:22.381Z,11.68
2023-01-08T05:32:21.255Z,11.78
2023-01-08T05:33:21.238Z,11.84
2023-01-08T05:34:21.360Z,11.73
2023-01-08T05:35:21.249Z,11.72
2023-01-08T05:36:22.224Z,11.68
2023-01-08T05:37:21.184Z,11.78
2023-01-08T05:38:22.180Z,11.84
2023-01-08T05:39:21.178Z,11.73
2023-01-08T05:40:21.165Z,11.78
2023-01-08T05:41:21.141Z,11.65
2023-01-08T05:42:22.171Z,11.66
2023-01-08T05:43:21.145Z,11.72
2023-01-08T05:44:21.108Z,11.77
2023-01-08T05:45:21.117Z,11.80
2023-01-08T05:46:21.175Z,11.77
2023-01-08T05:47:21.088Z,11.68
2023-01-08T05:48:21.114Z,11.70
2023-01-08T05:49:21.072Z,11.73
2023-01-08T05:50:22.197Z,11.80
2023-01-08T05:51:21.061Z,11.65
2023-01-08T05:52:22.012Z,11.78
2023-01-08T05:53:21.009Z,11.86
2023-01-08T05:54:21.042Z,11.73
2023-01-08T05:55:21.009Z,11.78
2023-01-08T05:56:20.978Z,11.72
2023-01-08T05:57:21.998Z,11.84
2023-01-08T05:58:20.959Z,11.86
2023-01-08T05:59:20.942Z,11.86
2023-01-08T06:00:20.975Z,11.84
2023-01-08T06:01:20.938Z,11.77
2023-01-08T06:02:22.019Z,11.81
2023-01-08T06:03:20.920Z,11.75
2023-01-08T06:04:21.927Z,11.80
2023-01-08T06:05:21.901Z,11.86
2023-01-08T06:06:20.994Z,11.94
2023-01-08T06:07:20.896Z,11.91
2023-01-08T06:08:20.851Z,11.90
2023-01-08T06:09:20.865Z,11.94
2023-01-08T06:10:20.831Z,11.90
2023-01-08T06:11:20.809Z,11.97
2023-01-08T06:12:20.840Z,11.95
2023-01-08T06:13:20.795Z,11.97
2023-01-08T06:14:21.776Z,11.97
2023-01-08T06:15:21.794Z,11.95
2023-01-08T06:16:20.814Z,12.00
2023-01-08T06:17:20.763Z,12.02
2023-01-08T06:18:21.743Z,11.94
2023-01-08T06:19:20.741Z,12.04
2023-01-08T06:20:20.732Z,11.99
2023-01-08T06:21:20.728Z,11.97
2023-01-08T06:22:20.825Z,12.00
2023-01-08T06:23:20.692Z,12.02
2023-01-08T06:24:21.679Z,11.95
2023-01-08T06:25:20.666Z,12.09
2023-01-08T06:26:20.667Z,12.10
2023-01-08T06:27:20.634Z,11.94
2023-01-08T06:28:20.625Z,11.94
2023-01-08T06:29:20.627Z,11.97
2023-01-08T06:30:20.605Z,11.91
2023-01-08T06:31:21.668Z,12.04
2023-01-08T06:32:21.581Z,11.99
2023-01-08T06:33:21.460Z,11.87
2023-01-08T06:34:20.606Z,11.88
2023-01-08T06:35:20.548Z,11.91
2023-01-08T06:36:20.540Z,11.94
2023-01-08T06:37:20.530Z,11.95
2023-01-08T06:38:20.707Z,11.95
2023-01-08T06:39:20.540Z,12.00
2023-01-08T06:40:20.486Z,11.95
2023-01-08T06:41:20.505Z,12.00
2023-01-08T06:42:20.472Z,11.97
2023-01-08T06:43:23.816Z,11.95
2023-01-08T06:44:20.440Z,12.03
2023-01-08T06:45:20.456Z,11.97
2023-01-08T06:46:21.437Z,11.99
2023-01-08T06:47:20.442Z,11.99
2023-01-08T06:48:20.407Z,12.07
2023-01-08T06:49:20.402Z,11.95
2023-01-08T06:50:20.408Z,11.94
2023-01-08T06:51:20.360Z,11.95
2023-01-08T06:52:20.365Z,12.07
2023-01-08T06:53:20.365Z,11.97
2023-01-08T06:54:20.463Z,11.95
2023-01-08T06:55:20.348Z,11.99
2023-01-08T06:56:20.366Z,12.06
2023-01-08T06:57:20.296Z,11.97
2023-01-08T06:58:20.290Z,11.95
2023-01-08T06:59:20.308Z,11.97
2023-01-08T07:00:21.286Z,12.00
2023-01-08T07:01:20.427Z,11.95
2023-01-08T07:02:20.630Z,12.09
2023-01-08T07:03:20.315Z,11.94
2023-01-08T07:04:21.270Z,12.04
2023-01-08T07:05:21.241Z,11.94
2023-01-08T07:06:20.207Z,11.91
2023-01-08T07:07:21.230Z,11.94
2023-01-08T07:08:20.201Z,12.02
2023-01-08T07:09:20.188Z,11.88
2023-01-08T07:10:20.404Z,11.87
2023-01-08T07:11:20.139Z,11.99
2023-01-08T07:12:20.165Z,12.02
2023-01-08T07:13:21.137Z,12.03
2023-01-08T07:14:21.128Z,11.91
2023-01-08T07:15:20.122Z,12.00
2023-01-08T07:16:20.145Z,12.07
2023-01-08T07:17:20.132Z,12.09
2023-01-08T07:18:20.089Z,11.90
2023-01-08T07:19:20.084Z,11.97
2023-01-08T07:20:21.067Z,11.94
2023-01-08T07:21:20.033Z,11.95
2023-01-08T07:22:20.037Z,12.00
2023-01-08T07:23:20.020Z,12.02
2023-01-08T07:24:20.038Z,11.99
2023-01-08T07:25:21.000Z,12.04
2023-01-08T07:26:21.103Z,12.00
2023-01-08T07:27:19.980Z,12.02
2023-01-08T07:28:19.950Z,11.99
2023-01-08T07:29:19.955Z,12.04
2023-01-08T07:30:29.273Z,12.03
2023-01-08T07:31:21.053Z,12.00
2023-01-08T07:32:19.908Z,11.97
2023-01-08T07:33:19.923Z,11.97
2023-01-08T07:34:19.901Z,11.84
2023-01-08T07:35:19.895Z,11.97
2023-01-08T07:36:19.903Z,11.90
2023-01-08T07:37:19.850Z,11.95
2023-01-08T07:38:19.868Z,12.07
2023-01-08T07:39:19.854Z,11.99
2023-01-08T07:40:20.848Z,12.06
2023-01-08T07:41:19.853Z,12.09
2023-01-08T07:42:19.925Z,12.09
2023-01-08T07:43:19.799Z,12.04
2023-01-08T07:44:19.821Z,12.09
2023-01-08T07:45:19.813Z,12.09
2023-01-08T07:46:19.839Z,12.13
2023-01-08T07:47:20.775Z,12.12
2023-01-08T07:48:19.736Z,12.09
2023-01-08T07:49:20.745Z,12.09
2023-01-08T07:50:19.726Z,12.04
2023-01-08T07:51:19.708Z,12.15
2023-01-08T07:52:19.704Z,12.20
2023-01-08T07:53:19.701Z,12.10
2023-01-08T07:54:19.686Z,12.13
2023-01-08T07:55:19.735Z,12.24
2023-01-08T07:56:19.648Z,12.17
2023-01-08T07:57:19.630Z,12.00
2023-01-08T07:58:20.728Z,11.95
2023-01-08T07:59:19.632Z,12.00
2023-01-08T08:00:19.658Z,11.90
2023-01-08T08:01:19.721Z,11.87
2023-01-08T08:02:19.890Z,11.87
2023-01-08T08:03:19.615Z,11.88
2023-01-08T08:04:19.572Z,11.94
2023-01-08T08:05:19.540Z,12.04
2023-01-08T08:06:19.569Z,11.95
2023-01-08T08:07:27.164Z,11.97
2023-01-08T08:08:19.544Z,11.95
2023-01-08T08:09:19.527Z,12.02
2023-01-08T08:10:19.492Z,12.04
2023-01-08T08:11:19.479Z,12.09
2023-01-08T08:12:19.489Z,12.12
2023-01-08T08:13:19.454Z,12.09
2023-01-08T08:14:19.587Z,12.20
2023-01-08T08:15:19.467Z,12.09
2023-01-08T08:16:20.497Z,12.12
2023-01-08T08:17:19.415Z,12.13
2023-01-08T08:18:19.411Z,12.17
2023-01-08T08:19:19.450Z,12.22
2023-01-08T08:20:19.376Z,12.21
2023-01-08T08:21:19.373Z,12.29
2023-01-08T08:22:19.396Z,12.29
2023-01-08T08:23:19.368Z,12.18
2023-01-08T08:24:19.342Z,12.24
2023-01-08T08:25:20.373Z,12.24
2023-01-08T08:26:19.336Z,12.22
2023-01-08T08:27:19.324Z,12.25
2023-01-08T08:28:19.312Z,12.27
2023-01-08T08:29:19.291Z,12.21
2023-01-08T08:30:19.394Z,12.18
2023-01-08T08:31:19.330Z,12.32
2023-01-08T08:32:19.275Z,12.28
2023-01-08T08:33:20.229Z,12.28
2023-01-08T08:34:19.221Z,12.24
2023-01-08T08:35:19.259Z,12.29
2023-01-08T08:36:19.232Z,12.27
2023-01-08T08:37:19.220Z,12.36
2023-01-08T08:38:19.203Z,12.36
2023-01-08T08:39:19.196Z,12.27
2023-01-08T08:40:19.196Z,12.24
2023-01-08T08:41:19.138Z,12.29
2023-01-08T08:42:20.153Z,12.39
2023-01-08T08:43:20.132Z,12.36
2023-01-08T08:44:19.128Z,12.40
2023-01-08T08:45:20.104Z,12.39
2023-01-08T08:46:19.282Z,12.40
2023-01-08T08:47:19.084Z,12.40
2023-01-08T08:48:19.092Z,12.36
2023-01-08T08:49:19.101Z,12.31
2023-01-08T08:50:19.062Z,12.27
2023-01-08T08:51:19.060Z,12.31
2023-01-08T08:52:19.019Z,12.39
2023-01-08T08:53:19.021Z,12.39
2023-01-08T08:54:20.045Z,12.36
2023-01-08T08:55:19.001Z,12.31
2023-01-08T08:56:18.981Z,12.32
2023-01-08T08:57:18.996Z,12.25
2023-01-08T08:58:18.999Z,12.36
2023-01-08T08:59:18.955Z,12.22
2023-01-08T09:00:19.944Z,12.32
2023-01-08T09:01:19.066Z,12.29
2023-01-08T09:02:19.253Z,12.35
2023-01-08T09:03:18.972Z,12.25
2023-01-08T09:04:18.913Z,12.35
2023-01-08T09:05:18.876Z,12.28
2023-01-08T09:06:18.871Z,12.27
2023-01-08T09:07:18.868Z,12.21
2023-01-08T09:08:18.871Z,12.27
2023-01-08T09:09:18.874Z,12.22
2023-01-08T09:10:18.852Z,12.24
2023-01-08T09:11:18.809Z,12.22
2023-01-08T09:12:19.809Z,12.21
2023-01-08T09:13:18.791Z,12.07
2023-01-08T09:14:18.828Z,12.17
2023-01-08T09:15:19.778Z,12.13
2023-01-08T09:16:18.785Z,12.09
2023-01-08T09:17:18.758Z,12.06
2023-01-08T09:18:18.878Z,12.18
2023-01-08T09:19:18.739Z,12.15
2023-01-08T09:20:19.720Z,12.13
2023-01-08T09:21:18.733Z,12.13
2023-01-08T09:22:18.694Z,12.10
2023-01-08T09:23:18.682Z,12.09
2023-01-08T09:24:19.686Z,12.09
2023-01-08T09:25:19.641Z,12.18
2023-01-08T09:26:18.716Z,12.09
2023-01-08T09:27:18.621Z,12.18
2023-01-08T09:28:18.629Z,12.13
2023-01-08T09:29:18.643Z,12.20
2023-01-08T09:30:18.603Z,12.17
2023-01-08T09:31:18.667Z,12.13
2023-01-08T09:32:18.607Z,12.22
2023-01-08T09:33:18.560Z,12.12
2023-01-08T09:34:18.659Z,12.10
2023-01-08T09:35:18.565Z,12.15
2023-01-08T09:36:19.063Z,12.12
2023-01-08T09:37:18.541Z,12.17
2023-01-08T09:38:18.501Z,12.17
2023-01-08T09:39:19.518Z,12.13
2023-01-08T09:40:18.505Z,12.12
2023-01-08T09:41:18.473Z,12.24
2023-01-08T09:42:19.490Z,12.17
2023-01-08T09:43:18.469Z,12.21
2023-01-08T09:44:18.437Z,12.17
2023-01-08T09:45:18.456Z,12.22
2023-01-08T09:46:18.472Z,12.24
2023-01-08T09:47:18.409Z,12.10
2023-01-08T09:48:18.409Z,12.21
2023-01-08T09:49:26.049Z,12.36
2023-01-08T09:50:18.372Z,12.27
2023-01-08T09:51:19.369Z,12.31
2023-01-08T09:52:18.387Z,12.29
2023-01-08T09:53:19.369Z,12.24
2023-01-08T09:54:18.358Z,12.29
2023-01-08T09:55:18.326Z,12.27
2023-01-08T09:56:18.336Z,12.28
2023-01-08T09:57:19.290Z,12.28
2023-01-08T09:58:18.332Z,12.37
2023-01-08T09:59:18.298Z,12.36
2023-01-08T10:00:18.285Z,12.39
2023-01-08T10:01:18.384Z,12.29
2023-01-08T10:02:18.403Z,12.36
2023-01-08T10:03:19.254Z,12.35
2023-01-08T10:04:19.247Z,12.37
2023-01-08T10:05:18.359Z,12.37
2023-01-08T10:06:18.214Z,12.37
2023-01-08T10:07:18.195Z,12.40
2023-01-08T10:08:18.167Z,12.36
2023-01-08T10:09:18.187Z,12.36
2023-01-08T10:10:19.209Z,12.42
2023-01-08T10:11:18.164Z,12.35
2023-01-08T10:12:19.131Z,12.45
2023-01-08T10:13:19.126Z,12.40
2023-01-08T10:14:19.100Z,12.40
2023-01-08T10:15:18.120Z,12.40
2023-01-08T10:16:18.637Z,12.35
2023-01-08T10:17:18.115Z,12.49
2023-01-08T10:18:18.060Z,12.50
2023-01-08T10:19:18.056Z,12.50
2023-01-08T10:20:19.138Z,12.50
2023-01-08T10:21:18.155Z,12.36
2023-01-08T10:22:18.028Z,12.43
2023-01-08T10:23:18.015Z,12.40
2023-01-08T10:24:17.999Z,12.47
2023-01-08T10:25:17.974Z,12.45
2023-01-08T10:26:19.001Z,12.55
2023-01-08T10:27:17.967Z,12.42
2023-01-08T10:28:17.960Z,12.47
2023-01-08T10:29:17.953Z,12.54
2023-01-08T10:30:17.938Z,12.31
2023-01-08T10:31:17.944Z,12.46
2023-01-08T10:32:17.936Z,12.47
2023-01-08T10:33:17.938Z,12.43
2023-01-08T10:34:17.900Z,12.53
2023-01-08T10:35:17.869Z,12.46
2023-01-08T10:36:17.869Z,12.40
2023-01-08T10:37:17.962Z,12.46
2023-01-08T10:38:17.845Z,12.46
2023-01-08T10:39:17.862Z,12.46
2023-01-08T10:40:18.819Z,12.47
2023-01-08T10:41:17.795Z,12.42
2023-01-08T10:42:18.831Z,12.47
2023-01-08T10:43:17.778Z,12.43
2023-01-08T10:44:18.787Z,12.46
2023-01-08T10:45:17.769Z,12.43
2023-01-08T10:46:18.786Z,12.58
2023-01-08T10:47:18.730Z,12.49
2023-01-08T10:48:18.757Z,12.54
2023-01-08T10:49:17.729Z,12.53
2023-01-08T10:50:17.703Z,12.57
2023-01-08T10:51:17.715Z,12.55
2023-01-08T10:52:17.706Z,12.50
2023-01-08T10:53:17.679Z,12.61
2023-01-08T10:54:17.681Z,12.54
2023-01-08T10:55:17.653Z,12.40
2023-01-08T10:56:17.643Z,12.45
2023-01-08T10:57:17.647Z,12.46
2023-01-08T10:58:17.637Z,12.47
2023-01-08T10:59:18.652Z,12.46
2023-01-08T11:00:17.595Z,12.46
2023-01-08T11:01:17.740Z,12.57
2023-01-08T11:02:18.620Z,12.54
2023-01-08T11:03:17.570Z,12.50
2023-01-08T11:04:17.543Z,12.45
2023-01-08T11:05:17.551Z,12.42
2023-01-08T11:06:17.524Z,12.49
2023-01-08T11:07:18.545Z,12.39
2023-01-08T11:08:17.517Z,12.47
2023-01-08T11:09:17.503Z,12.49
2023-01-08T11:10:17.526Z,12.46
2023-01-08T11:11:17.470Z,12.47
2023-01-08T11:12:18.450Z,12.49
2023-01-08T11:13:17.456Z,12.40
2023-01-08T11:14:17.441Z,12.46
2023-01-08T11:15:17.438Z,12.49
2023-01-08T11:16:17.426Z,12.43
2023-01-08T11:17:17.416Z,12.46
2023-01-08T11:18:17.406Z,12.47
2023-01-08T11:19:18.591Z,12.39
2023-01-08T11:20:17.380Z,12.37
2023-01-08T11:21:17.385Z,12.50
2023-01-08T11:22:17.337Z,12.58
2023-01-08T11:23:17.344Z,12.53
2023-01-08T11:24:17.345Z,12.60
2023-01-08T11:25:17.372Z,12.60
2023-01-08T11:26:17.327Z,12.61
2023-01-08T11:27:17.332Z,12.61
2023-01-08T11:28:17.325Z,12.65
2023-01-08T11:29:17.277Z,12.58
2023-01-08T11:30:17.274Z,12.54
2023-01-08T11:31:17.307Z,12.57
2023-01-08T11:32:18.246Z,12.73
2023-01-08T11:33:18.231Z,12.72
2023-01-08T11:34:17.222Z,12.61
2023-01-08T11:35:17.231Z,12.70
2023-01-08T11:36:18.188Z,12.68
2023-01-08T11:37:17.199Z,12.75
2023-01-08T11:38:17.200Z,12.65
2023-01-08T11:39:17.190Z,12.73
2023-01-08T11:40:17.163Z,12.68
2023-01-08T11:41:18.165Z,12.72
2023-01-08T11:42:17.122Z,12.65
2023-01-08T11:43:17.155Z,12.58
2023-01-08T11:44:17.124Z,12.47
2023-01-08T11:45:17.111Z,12.54
2023-01-08T11:46:17.089Z,12.60
2023-01-08T11:47:18.082Z,12.49
2023-01-08T11:48:17.064Z,12.61
2023-01-08T11:49:17.060Z,12.54
2023-01-08T11:50:17.031Z,12.64
2023-01-08T11:51:18.074Z,12.72
2023-01-08T11:52:18.044Z,12.62
2023-01-08T11:53:16.996Z,12.65
2023-01-08T11:54:18.014Z,12.64
2023-01-08T11:55:16.997Z,12.62
2023-01-08T11:56:17.004Z,12.72
2023-01-08T11:57:16.995Z,12.79
2023-01-08T11:58:16.948Z,12.80
2023-01-08T11:59:16.952Z,12.73
2023-01-08T12:00:16.925Z,12.78
2023-01-08T12:01:16.942Z,12.78
2023-01-08T12:02:16.962Z,12.82
2023-01-08T12:03:16.921Z,12.76
2023-01-08T12:04:16.910Z,12.75
2023-01-08T12:05:16.885Z,12.79
2023-01-08T12:06:16.865Z,12.83
2023-01-08T12:07:16.877Z,12.80
2023-01-08T12:08:16.832Z,12.82
2023-01-08T12:09:16.830Z,12.80
2023-01-08T12:10:17.870Z,12.93
2023-01-08T12:11:16.792Z,12.87
2023-01-08T12:12:17.781Z,12.86
2023-01-08T12:13:16.817Z,12.85
2023-01-08T12:14:16.778Z,12.91
2023-01-08T12:15:16.767Z,12.86
2023-01-08T12:16:16.804Z,12.83
2023-01-08T12:17:16.732Z,12.86
2023-01-08T12:18:16.744Z,12.91
2023-01-08T12:19:16.708Z,12.91
2023-01-08T12:20:17.812Z,12.91
2023-01-08T12:21:16.699Z,12.91
2023-01-08T12:22:16.671Z,12.87
2023-01-08T12:23:16.690Z,12.95
2023-01-08T12:24:16.678Z,12.98
2023-01-08T12:25:16.693Z,12.97
2023-01-08T12:26:17.685Z,13.01
2023-01-08T12:27:16.618Z,12.91
2023-01-08T12:28:17.628Z,12.94
2023-01-08T12:29:16.629Z,12.97
2023-01-08T12:30:16.611Z,13.01
2023-01-08T12:31:16.612Z,12.90
2023-01-08T12:32:16.614Z,12.93
2023-01-08T12:33:16.570Z,12.93
2023-01-08T12:34:17.591Z,12.98
2023-01-08T12:35:16.568Z,12.98
2023-01-08T12:36:16.513Z,13.04
2023-01-08T12:37:16.508Z,13.00
2023-01-08T12:38:17.531Z,12.97
2023-01-08T12:39:16.503Z,13.08
2023-01-08T12:40:16.502Z,13.13
2023-01-08T12:41:16.482Z,13.11
2023-01-08T12:42:16.463Z,13.00
2023-01-08T12:43:16.478Z,13.05
2023-01-08T12:44:16.439Z,13.12
2023-01-08T12:45:16.475Z,13.12
2023-01-08T12:46:16.474Z,13.09
2023-01-08T12:47:16.404Z,13.12
2023-01-08T12:48:16.410Z,13.09
2023-01-08T12:49:16.371Z,13.09
2023-01-08T12:50:16.432Z,13.20
2023-01-08T12:51:16.379Z,13.12
2023-01-08T12:52:16.366Z,13.08